Time;durP1;ratioP1;P1;durP2;ratioP2;P2;SDS_P1;SDS_P2;PMS_P1;PMS_P2;Temp;Humidity;BMP_temperature;BMP_pressure;BME280_temperature;BME280_humidity;BME280_pressure;Samples;Min_cycle;Max_cycle;Signal;HPM_P1;HPM_P2
2021/03/13 00:00:36;;;;;;;2.45;1.60;;;4.90;1.00;;;;;;4892268;28;20222;-77
2021/03/13 00:03:03;;;;;;;1.85;1.55;;;4.90;1.00;;;;;;4898817;28;20277;-77
2021/03/13 00:05:31;;;;;;;2.67;1.52;;;4.80;1.00;;;;;;4892978;28;20232;-76
2021/03/13 00:07:57;;;;;;;2.40;1.80;;;4.80;1.00;;;;;;4885843;29;20234;-76
2021/03/13 00:10:26;;;;;;;3.67;1.70;;;4.80;1.00;;;;;;4894648;28;20225;-76
2021/03/13 00:12:56;;;;;;;1.60;1.40;;;4.90;1.00;;;;;;4905371;29;20229;-77
2021/03/13 00:15:23;;;;;;;3.08;1.70;;;4.90;1.00;;;;;;4900446;28;20336;-76
2021/03/13 00:17:52;;;;;;;1.85;1.40;;;5.00;1.00;;;;;;4905731;29;20275;-75
2021/03/13 00:20:23;;;;;;;1.70;1.40;;;5.00;1.00;;;;;;4891820;28;20255;-75
2021/03/13 00:22:49;;;;;;;2.28;1.63;;;5.10;1.00;;;;;;4897222;28;20539;-74
2021/03/13 00:25:17;;;;;;;3.65;1.55;;;5.00;1.00;;;;;;4896015;28;20233;-76
2021/03/13 00:27:46;;;;;;;2.63;1.40;;;5.00;1.00;;;;;;4895209;28;20357;-76
2021/03/13 00:30:16;;;;;;;1.65;1.55;;;5.00;1.00;;;;;;4902918;28;20222;-77
2021/03/13 00:32:45;;;;;;;2.28;1.52;;;5.10;1.00;;;;;;4892512;28;20836;-77
2021/03/13 00:35:12;;;;;;;1.58;1.35;;;5.10;1.00;;;;;;4906495;29;20241;-76
2021/03/13 00:37:38;;;;;;;2.13;1.63;;;5.10;1.00;;;;;;4908107;28;20293;-78
2021/03/13 00:40:06;;;;;;;1.70;1.60;;;5.10;1.00;;;;;;4920422;29;20230;-76
2021/03/13 00:42:33;;;;;;;1.88;1.60;;;5.10;1.00;;;;;;4894612;28;20223;-77
2021/03/13 00:44:59;;;;;;;3.13;1.83;;;5.10;1.00;;;;;;4907684;28;20232;-75
2021/03/13 00:47:26;;;;;;;2.05;1.58;;;5.10;1.00;;;;;;4908920;28;20245;-76
2021/03/13 00:49:53;;;;;;;1.92;1.70;;;5.20;1.00;;;;;;4897342;28;20624;-75
2021/03/13 00:52:19;;;;;;;2.50;1.55;;;5.10;1.00;;;;;;4895719;28;20218;-76
2021/03/13 00:54:45;;;;;;;1.85;1.75;;;5.10;1.00;;;;;;4905354;28;20241;-77
2021/03/13 00:57:11;;;;;;;3.15;2.00;;;5.10;1.00;;;;;;4888271;28;20866;-75
2021/03/13 00:59:38;;;;;;;2.08;1.60;;;5.10;1.00;;;;;;4904079;29;20229;-76
2021/03/13 01:02:04;;;;;;;2.10;1.90;;;5.10;1.00;;;;;;4894360;28;20280;-76
2021/03/13 01:04:31;;;;;;;3.30;1.52;;;5.20;1.00;;;;;;4903279;29;20236;-76
2021/03/13 01:06:57;;;;;;;3.45;1.65;;;5.20;1.00;;;;;;4864573;28;20289;-77
2021/03/13 01:09:24;;;;;;;1.63;1.40;;;5.20;1.00;;;;;;4900530;29;21708;-75
2021/03/13 01:11:50;;;;;;;3.58;1.52;;;5.30;1.00;;;;;;4903390;28;20260;-75
2021/03/13 01:14:17;;;;;;;1.60;1.50;;;5.30;1.00;;;;;;4884316;28;20304;-76
2021/03/13 01:16:44;;;;;;;1.40;1.27;;;5.20;1.00;;;;;;4898559;29;20328;-76
2021/03/13 01:19:11;;;;;;;3.63;1.70;;;5.30;1.00;;;;;;4868024;29;20232;-74
2021/03/13 01:21:38;;;;;;;2.90;1.60;;;5.30;1.00;;;;;;4900936;29;20241;-75
2021/03/13 01:24:04;;;;;;;4.13;1.65;;;5.30;1.00;;;;;;4893048;28;20225;-77
2021/03/13 01:26:31;;;;;;;2.97;1.20;;;5.30;1.00;;;;;;4903866;29;20257;-78
2021/03/13 01:28:57;;;;;;;5.35;1.75;;;5.40;1.00;;;;;;4894277;28;20954;-75
2021/03/13 01:31:24;;;;;;;2.05;1.65;;;5.40;1.00;;;;;;4904022;28;20226;-76
2021/03/13 01:33:51;;;;;;;4.28;1.90;;;5.40;1.00;;;;;;4893717;28;20242;-76
2021/03/13 01:36:17;;;;;;;2.20;1.73;;;5.40;1.00;;;;;;4907508;28;20244;-76
2021/03/13 01:38:44;;;;;;;2.08;1.80;;;5.40;1.00;;;;;;4894325;28;20262;-77
2021/03/13 01:41:11;;;;;;;2.20;1.83;;;5.40;1.00;;;;;;4890855;28;20222;-76
2021/03/13 01:43:39;;;;;;;2.58;1.92;;;5.40;1.00;;;;;;4889403;28;20292;-77
2021/03/13 01:46:06;;;;;;;2.65;1.60;;;5.40;1.00;;;;;;4909660;28;20931;-75
2021/03/13 01:48:34;;;;;;;4.80;2.33;;;5.40;1.00;;;;;;4903669;28;20226;-75
2021/03/13 01:51:02;;;;;;;2.80;1.95;;;5.40;1.00;;;;;;4916549;29;20226;-76
2021/03/13 01:53:28;;;;;;;3.47;2.15;;;5.40;1.00;;;;;;4908743;28;20235;-75
2021/03/13 01:55:55;;;;;;;4.20;2.60;;;5.40;1.00;;;;;;4905256;28;20242;-74
2021/03/13 01:58:21;;;;;;;2.72;2.30;;;5.30;1.00;;;;;;4898936;29;20241;-75
2021/03/13 02:00:48;;;;;;;3.03;2.00;;;5.30;1.00;;;;;;4903282;28;20335;-76
2021/03/13 02:03:15;;;;;;;3.05;2.03;;;5.30;1.00;;;;;;4915976;28;20236;-76
2021/03/13 02:05:44;;;;;;;3.50;2.50;;;5.20;1.00;;;;;;4900556;28;21165;-75
2021/03/13 02:08:18;;;;;;;2.45;2.25;;;5.20;1.00;;;;;;4918224;28;20225;-76
2021/03/13 02:10:59;;;;;;;2.75;2.33;;;5.20;1.00;;;;;;4906511;28;20225;-75
2021/03/13 02:13:29;;;;;;;3.83;1.90;;;5.10;1.00;;;;;;4888424;29;20230;-74
2021/03/13 02:16:08;;;;;;;4.75;2.30;;;5.10;1.00;;;;;;4879740;29;20265;-75
2021/03/13 02:18:41;;;;;;;4.60;2.45;;;5.10;1.00;;;;;;4898384;29;20230;-75
2021/03/13 02:21:12;;;;;;;3.05;2.20;;;5.10;1.00;;;;;;4894932;28;20236;-75
2021/03/13 02:24:02;;;;;;;3.83;2.45;;;5.10;1.00;;;;;;4914226;29;20677;-76
2021/03/13 02:26:42;;;;;;;3.63;2.67;;;5.10;1.00;;;;;;4891625;28;20942;-76
2021/03/13 02:29:33;;;;;;;4.32;2.78;;;5.00;1.00;;;;;;4906169;28;20277;-75
2021/03/13 02:32:07;;;;;;;5.32;2.13;;;5.00;1.00;;;;;;4903124;28;20234;-78
2021/03/13 02:34:36;;;;;;;3.53;1.88;;;5.00;1.00;;;;;;4910674;29;20261;-76
2021/03/13 02:37:06;;;;;;;2.78;2.42;;;5.00;1.00;;;;;;4897289;28;20232;-76
2021/03/13 02:39:34;;;;;;;3.83;2.95;;;5.00;1.00;;;;;;4908047;28;24105;-76
2021/03/13 02:42:03;;;;;;;2.95;2.70;;;5.10;1.00;;;;;;4877405;29;20238;-76
2021/03/13 02:44:32;;;;;;;5.65;3.00;;;5.10;1.00;;;;;;4901603;28;20257;-76
2021/03/13 02:46:59;;;;;;;4.35;3.40;;;5.20;1.00;;;;;;4885448;28;20228;-75
2021/03/13 02:49:26;;;;;;;4.15;2.80;;;5.20;1.00;;;;;;4906181;28;20234;-77
2021/03/13 02:51:54;;;;;;;3.65;2.63;;;5.30;1.00;;;;;;4888657;28;20373;-76
2021/03/13 02:54:23;;;;;;;4.95;3.13;;;5.30;1.00;;;;;;4895406;29;20347;-76
2021/03/13 02:56:52;;;;;;;4.35;3.22;;;5.30;1.00;;;;;;4888873;28;24219;-76
2021/03/13 02:59:19;;;;;;;5.28;3.35;;;5.40;1.00;;;;;;4901456;29;20237;-76
2021/03/13 03:01:47;;;;;;;3.83;3.22;;;5.40;1.00;;;;;;4887941;28;20218;-75
2021/03/13 03:04:16;;;;;;;7.85;2.88;;;5.40;1.00;;;;;;4898893;29;20250;-77
2021/03/13 03:06:46;;;;;;;2.95;2.75;;;5.50;1.00;;;;;;4864548;28;21305;-76
2021/03/13 03:09:13;;;;;;;5.18;3.05;;;5.50;1.00;;;;;;4902017;29;20357;-77
2021/03/13 03:11:41;;;;;;;6.05;2.85;;;5.50;1.00;;;;;;4890548;28;21091;-76
2021/03/13 03:14:10;;;;;;;3.70;2.88;;;5.50;1.00;;;;;;4893870;28;20649;-77
2021/03/13 03:16:39;;;;;;;5.00;3.42;;;5.50;1.00;;;;;;4900486;29;20233;-76
2021/03/13 03:19:09;;;;;;;3.80;2.78;;;5.50;1.00;;;;;;4879647;28;20225;-75
2021/03/13 03:21:38;;;;;;;2.38;2.17;;;5.50;1.00;;;;;;4901431;29;20253;-77
2021/03/13 03:24:10;;;;;;;3.95;2.75;;;5.40;1.00;;;;;;4885133;28;20234;-77
2021/03/13 03:26:37;;;;;;;7.35;2.78;;;5.40;1.00;;;;;;4893855;28;20793;-77
2021/03/13 03:29:07;;;;;;;3.42;2.60;;;5.30;1.00;;;;;;4882903;28;20236;-75
2021/03/13 03:31:33;;;;;;;3.10;2.80;;;5.20;1.00;;;;;;4884585;29;20238;-76
2021/03/13 03:34:00;;;;;;;3.47;2.60;;;5.20;1.00;;;;;;4888581;28;20232;-76
2021/03/13 03:36:27;;;;;;;6.10;3.00;;;5.20;1.00;;;;;;4896804;28;20921;-75
2021/03/13 03:38:54;;;;;;;3.60;2.17;;;5.10;1.00;;;;;;4889492;28;20901;-75
2021/03/13 03:41:21;;;;;;;2.80;2.30;;;5.00;1.00;;;;;;4895537;28;20245;-75
2021/03/13 03:43:50;;;;;;;3.83;2.47;;;5.10;1.00;;;;;;4884901;28;20225;-76
2021/03/13 03:46:17;;;;;;;3.60;2.15;;;5.00;1.00;;;;;;4901353;29;20226;-76
2021/03/13 03:48:45;;;;;;;5.60;2.72;;;5.10;1.00;;;;;;4882993;28;20375;-76
2021/03/13 03:51:14;;;;;;;2.40;1.85;;;5.20;1.00;;;;;;4903550;29;21471;-77
2021/03/13 03:53:42;;;;;;;2.60;2.00;;;5.10;1.00;;;;;;4884147;28;20233;-77
2021/03/13 03:56:09;;;;;;;3.92;2.20;;;5.20;1.00;;;;;;4894285;29;20242;-76
2021/03/13 03:58:39;;;;;;;2.83;2.15;;;5.20;1.00;;;;;;4876946;28;20225;-76
2021/03/13 04:01:07;;;;;;;2.60;2.40;;;5.20;1.00;;;;;;4895701;29;20221;-75
2021/03/13 04:03:35;;;;;;;4.07;2.40;;;5.20;1.00;;;;;;4895627;29;20344;-76
2021/03/13 04:06:02;;;;;;;2.60;2.40;;;5.10;1.00;;;;;;4860132;29;20242;-76
2021/03/13 04:08:31;;;;;;;5.50;4.25;;;5.10;1.00;;;;;;4878179;29;20229;-77
2021/03/13 04:10:59;;;;;;;6.32;1.90;;;5.10;1.00;;;;;;4896949;28;20228;-76
2021/03/13 04:13:26;;;;;;;3.28;2.40;;;5.00;1.00;;;;;;4913323;29;20257;-76
2021/03/13 04:15:52;;;;;;;2.45;2.03;;;5.00;1.00;;;;;;4886841;28;20233;-76
2021/03/13 04:18:19;;;;;;;3.55;1.95;;;5.00;1.00;;;;;;4897120;29;20257;-75
2021/03/13 04:20:47;;;;;;;4.90;2.95;;;5.00;1.00;;;;;;4881726;28;20225;-76
2021/03/13 04:23:16;;;;;;;2.50;1.83;;;5.00;1.00;;;;;;4897312;28;21584;-76
2021/03/13 04:25:43;;;;;;;3.63;2.20;;;4.90;1.00;;;;;;4886982;28;20226;-76
2021/03/13 04:28:10;;;;;;;3.45;2.63;;;4.90;1.00;;;;;;4899810;29;20217;-75
2021/03/13 04:30:36;;;;;;;3.42;2.17;;;4.90;1.00;;;;;;4890401;28;20295;-77
2021/03/13 04:33:04;;;;;;;4.60;2.95;;;4.90;1.00;;;;;;4896972;28;20229;-76
2021/03/13 04:35:32;;;;;;;3.00;2.55;;;4.90;1.00;;;;;;4886712;28;20268;-76
2021/03/13 04:37:59;;;;;;;4.10;2.92;;;4.90;1.00;;;;;;4882644;29;20234;-75
2021/03/13 04:40:25;;;;;;;4.45;3.00;;;4.90;1.00;;;;;;4888621;28;21936;-76
2021/03/13 04:42:52;;;;;;;4.07;2.97;;;4.80;1.00;;;;;;4895665;28;20227;-76
2021/03/13 04:45:20;;;;;;;4.00;2.80;;;4.80;1.00;;;;;;4890319;28;20240;-76
2021/03/13 04:47:48;;;;;;;3.90;2.63;;;4.90;1.00;;;;;;4896901;28;20253;-76
2021/03/13 04:50:16;;;;;;;3.75;2.83;;;5.00;1.00;;;;;;4897881;29;20238;-77
2021/03/13 04:52:42;;;;;;;5.75;2.17;;;5.00;1.00;;;;;;4887785;28;20230;-76
2021/03/13 04:55:09;;;;;;;4.47;2.60;;;5.00;1.00;;;;;;4899990;28;20729;-77
2021/03/13 04:57:36;;;;;;;3.75;2.50;;;5.10;1.00;;;;;;4884932;28;20235;-75
2021/03/13 05:00:04;;;;;;;3.53;2.45;;;5.10;1.00;;;;;;4896839;28;20702;-76
2021/03/13 05:02:31;;;;;;;3.30;2.55;;;5.10;1.00;;;;;;4889350;28;20228;-76
2021/03/13 05:04:57;;;;;;;3.20;2.88;;;5.00;1.00;;;;;;4902130;28;20232;-75
2021/03/13 05:07:23;;;;;;;2.67;2.05;;;5.00;1.00;;;;;;4885910;28;20316;-77
2021/03/13 05:09:49;;;;;;;3.42;2.70;;;5.00;1.00;;;;;;4901225;29;20241;-74
2021/03/13 05:12:15;;;;;;;3.25;2.67;;;4.90;1.00;;;;;;4891909;28;20234;-76
2021/03/13 05:14:41;;;;;;;3.88;2.40;;;4.90;1.00;;;;;;4916943;29;20234;-77
2021/03/13 05:17:08;;;;;;;3.40;2.38;;;4.90;1.00;;;;;;4904723;28;20226;-76
2021/03/13 05:19:35;;;;;;;4.35;2.35;;;4.90;1.00;;;;;;4913743;28;20221;-75
2021/03/13 05:22:01;;;;;;;2.53;2.08;;;4.90;1.00;;;;;;4902832;28;20520;-76
2021/03/13 05:24:27;;;;;;;2.47;2.28;;;4.90;1.00;;;;;;4895008;29;20931;-76
2021/03/13 05:26:54;;;;;;;3.20;2.38;;;4.90;1.00;;;;;;4898684;28;20226;-76
2021/03/13 05:29:20;;;;;;;2.65;2.45;;;4.90;1.00;;;;;;4909462;28;21292;-77
2021/03/13 05:31:51;;;;;;;3.28;2.42;;;4.90;1.00;;;;;;4911895;29;20426;-76
2021/03/13 05:34:17;;;;;;;2.30;2.10;;;4.90;1.00;;;;;;4923811;28;20333;-76
2021/03/13 05:36:45;;;;;;;2.33;2.13;;;4.90;1.00;;;;;;4891981;29;20324;-76
2021/03/13 05:39:11;;;;;;;3.35;2.83;;;4.80;1.00;;;;;;4895318;28;21503;-76
2021/03/13 05:41:38;;;;;;;3.70;2.60;;;4.80;1.00;;;;;;4904745;28;21190;-77
2021/03/13 05:44:05;;;;;;;3.05;2.40;;;4.80;1.00;;;;;;4895479;28;20812;-76
2021/03/13 05:46:35;;;;;;;3.30;2.90;;;4.80;1.00;;;;;;4908814;28;20230;-76
2021/03/13 05:49:03;;;;;;;4.30;3.00;;;4.90;1.00;;;;;;4897366;28;20237;-76
2021/03/13 05:51:34;;;;;;;2.65;2.45;;;4.90;1.00;;;;;;4902535;28;20226;-76
2021/03/13 05:54:02;;;;;;;5.78;3.10;;;5.00;1.00;;;;;;4895472;28;20225;-77
2021/03/13 05:56:29;;;;;;;3.47;2.45;;;5.10;1.00;;;;;;4891220;29;20252;-75
2021/03/13 05:58:57;;;;;;;3.72;2.60;;;5.20;1.00;;;;;;4890580;28;20306;-76
2021/03/13 06:01:25;;;;;;;3.97;2.88;;;5.30;1.00;;;;;;4906926;29;20241;-76
2021/03/13 06:03:51;;;;;;;3.50;2.80;;;5.30;1.00;;;;;;4899407;28;20229;-77
2021/03/13 06:06:18;;;;;;;3.22;2.90;;;5.40;1.00;;;;;;4910159;29;20236;-76
2021/03/13 06:08:48;;;;;;;3.38;2.92;;;5.40;1.00;;;;;;4892716;28;21210;-77
2021/03/13 06:11:17;;;;;;;3.00;2.70;;;5.40;1.00;;;;;;4916276;29;20233;-76
2021/03/13 06:13:43;;;;;;;4.60;3.05;;;5.50;1.00;;;;;;4906072;28;20233;-76
2021/03/13 06:16:09;;;;;;;2.90;2.15;;;5.50;1.00;;;;;;4910753;28;20229;-79
2021/03/13 06:18:58;;;;;;;3.10;2.80;;;5.50;1.00;;;;;;4915555;28;20719;-76
2021/03/13 06:21:27;;;;;;;2.65;2.03;;;5.50;1.00;;;;;;4897098;29;20618;-78
2021/03/13 06:23:58;;;;;;;3.78;2.25;;;5.50;1.00;;;;;;4931441;28;20292;-78
2021/03/13 06:26:29;;;;;;;4.40;2.72;;;5.50;1.00;;;;;;4909096;28;20281;-78
2021/03/13 06:28:56;;;;;;;2.90;2.70;;;5.50;1.00;;;;;;4915759;29;20859;-78
2021/03/13 06:31:25;;;;;;;2.67;2.38;;;5.60;1.00;;;;;;4898180;28;20321;-77
2021/03/13 06:33:51;;;;;;;3.13;2.30;;;5.60;1.00;;;;;;4914261;28;20234;-78
2021/03/13 06:36:26;;;;;;;4.35;2.38;;;5.70;1.00;;;;;;4899789;28;20771;-77
2021/03/13 06:38:53;;;;;;;3.45;2.30;;;5.80;1.00;;;;;;4920353;28;20233;-78
2021/03/13 06:41:22;;;;;;;3.13;2.70;;;5.90;1.00;;;;;;4903547;28;20235;-79
2021/03/13 06:43:51;;;;;;;2.55;2.03;;;5.90;1.00;;;;;;4918226;28;20240;-77
2021/03/13 06:46:18;;;;;;;2.40;2.20;;;5.90;1.00;;;;;;4900308;28;20317;-77
2021/03/13 06:48:46;;;;;;;2.78;2.28;;;6.00;1.00;;;;;;4917975;29;20420;-79
2021/03/13 06:51:17;;;;;;;2.40;2.20;;;6.10;1.00;;;;;;4906914;28;20226;-77
2021/03/13 06:53:46;;;;;;;2.38;2.00;;;6.20;1.00;;;;;;4902682;29;20336;-79
2021/03/13 06:56:13;;;;;;;3.63;2.28;;;6.30;1.00;;;;;;4900816;28;20241;-78
2021/03/13 06:58:40;;;;;;;2.50;2.03;;;6.30;1.00;;;;;;4916172;29;20317;-80
2021/03/13 07:01:09;;;;;;;3.30;2.20;;;6.40;1.00;;;;;;4903980;28;20234;-78
2021/03/13 07:03:49;;;;;;;2.95;2.65;;;6.40;1.00;;;;;;4914852;29;21056;-78
2021/03/13 07:06:16;;;;;;;2.38;2.10;;;6.40;1.00;;;;;;4900960;28;20325;-80
2021/03/13 07:08:44;;;;;;;2.42;2.00;;;6.50;1.00;;;;;;4913050;28;20771;-78
2021/03/13 07:11:16;;;;;;;4.43;2.10;;;6.60;1.00;;;;;;4898978;28;20301;-78
2021/03/13 07:13:45;;;;;;;1.83;1.73;;;6.60;1.00;;;;;;4907440;28;20236;-78
2021/03/13 07:16:26;;;;;;;3.25;2.92;;;6.60;1.00;;;;;;4897140;28;21452;-78
2021/03/13 07:18:53;;;;;;;2.80;2.13;;;6.70;1.00;;;;;;4913088;28;20775;-79
2021/03/13 07:21:21;;;;;;;3.53;2.08;;;6.70;1.00;;;;;;4900279;28;20241;-80
2021/03/13 07:23:54;;;;;;;3.22;2.30;;;6.80;1.00;;;;;;4908227;28;20244;-78
2021/03/13 07:26:24;;;;;;;3.70;2.25;;;6.90;1.00;;;;;;4913562;28;20218;-77
2021/03/13 07:28:53;;;;;;;4.25;3.10;;;6.90;1.00;;;;;;4900119;28;20245;-77
2021/03/13 07:31:20;;;;;;;3.10;2.30;;;7.00;1.00;;;;;;4890986;29;20239;-79
2021/03/13 07:33:49;;;;;;;2.67;2.47;;;7.00;1.00;;;;;;4900342;28;20230;-78
2021/03/13 07:36:21;;;;;;;5.28;3.22;;;7.00;1.00;;;;;;4911053;29;21092;-78
2021/03/13 07:38:49;;;;;;;2.92;2.58;;;7.00;1.00;;;;;;4896787;28;20722;-78
2021/03/13 07:41:17;;;;;;;2.45;2.00;;;6.90;1.00;;;;;;4907213;29;20252;-78
2021/03/13 07:43:45;;;;;;;3.65;2.58;;;6.80;1.00;;;;;;4897510;28;20320;-77
2021/03/13 07:46:13;;;;;;;3.15;2.40;;;6.80;1.00;;;;;;4909648;29;20257;-78
2021/03/13 07:48:40;;;;;;;2.88;2.60;;;6.80;1.00;;;;;;4902218;28;20230;-79
2021/03/13 07:51:08;;;;;;;4.35;2.67;;;6.80;1.00;;;;;;4917079;29;20243;-77
2021/03/13 07:53:37;;;;;;;3.05;2.78;;;6.80;1.00;;;;;;4905508;28;20324;-76
2021/03/13 07:56:05;;;;;;;3.13;2.80;;;6.70;1.00;;;;;;4911691;28;20237;-78
2021/03/13 07:58:31;;;;;;;5.03;3.17;;;6.70;1.00;;;;;;4905691;28;20305;-77
2021/03/13 08:00:59;;;;;;;5.47;4.75;;;6.60;1.00;;;;;;4926054;28;20949;-77
2021/03/13 08:03:46;;;;;;;4.72;2.83;;;6.50;1.00;;;;;;4912157;28;20232;-81
2021/03/13 08:06:15;;;;;;;11.38;4.38;;;6.40;1.00;;;;;;4932220;28;20264;-78
2021/03/13 08:08:42;;;;;;;6.70;6.00;;;6.30;1.00;;;;;;4912994;28;20340;-77
2021/03/13 08:11:10;;;;;;;4.93;3.63;;;6.20;1.00;;;;;;4928779;29;20261;-78
2021/03/13 08:13:54;;;;;;;4.50;3.20;;;6.30;1.00;;;;;;4906151;28;21851;-80
2021/03/13 08:16:38;;;;;;;5.00;3.10;;;6.30;1.00;;;;;;4892893;29;20337;-80
2021/03/13 08:19:24;;;;;;;5.57;3.17;;;6.30;1.00;;;;;;4900557;28;20245;-78
2021/03/13 08:22:08;;;;;;;5.15;3.60;;;6.20;1.00;;;;;;4911271;29;20276;-79
2021/03/13 08:24:40;;;;;;;4.28;3.88;;;6.20;1.00;;;;;;4894277;28;20225;-78
2021/03/13 08:27:11;;;;;;;5.25;3.70;;;6.20;1.00;;;;;;4910675;29;20233;-77
2021/03/13 08:30:15;;;;;;;6.45;3.30;;;6.20;1.00;;;;;;4900694;28;20230;-78
2021/03/13 08:33:04;;;;;;;5.43;3.65;;;6.10;1.00;;;;;;4902491;29;20336;-78
2021/03/13 08:35:32;;;;;;;4.05;3.60;;;6.00;1.00;;;;;;4898488;28;20325;-78
2021/03/13 08:37:59;;;;;;;7.93;4.47;;;6.00;1.00;;;;;;4914198;28;20230;-79
2021/03/13 08:40:27;;;;;;;5.65;3.45;;;6.00;1.00;;;;;;4907786;28;20233;-79
2021/03/13 08:42:53;;;;;;;4.20;3.80;;;6.00;1.00;;;;;;4907557;28;20221;-78
2021/03/13 08:45:21;;;;;;;8.35;4.20;;;6.00;1.00;;;;;;4896212;28;20240;-81
2021/03/13 08:47:52;;;;;;;6.20;4.28;;;6.00;1.00;;;;;;4911525;28;20250;-77
2021/03/13 08:50:51;;;;;;;4.63;4.18;;;6.00;1.00;;;;;;4899517;28;20320;-79
2021/03/13 08:53:38;;;;;;;5.45;3.70;;;5.90;1.00;;;;;;4890791;28;20242;-79
2021/03/13 08:56:44;;;;;;;5.00;4.50;;;5.90;1.00;;;;;;4901386;28;20360;-80
2021/03/13 08:59:15;;;;;;;4.47;4.07;;;5.90;1.00;;;;;;4905188;28;21435;-78
2021/03/13 09:01:43;;;;;;;4.53;4.00;;;5.90;1.00;;;;;;4899012;28;20351;-78
2021/03/13 09:04:10;;;;;;;7.35;4.40;;;5.90;1.00;;;;;;4909297;28;20244;-77
2021/03/13 09:06:39;;;;;;;5.35;4.18;;;5.90;1.00;;;;;;4895271;28;20298;-77
2021/03/13 09:09:11;;;;;;;5.68;4.25;;;6.00;1.00;;;;;;4908934;29;20231;-77
2021/03/13 09:11:40;;;;;;;5.47;4.28;;;6.00;1.00;;;;;;4893707;28;20293;-78
2021/03/13 09:14:06;;;;;;;4.93;4.20;;;6.10;1.00;;;;;;4906834;29;20971;-81
2021/03/13 09:16:38;;;;;;;5.38;3.90;;;6.10;1.00;;;;;;4895750;28;20250;-77
2021/03/13 09:19:05;;;;;;;6.43;4.35;;;6.20;1.00;;;;;;4907417;29;20257;-78
2021/03/13 09:21:47;;;;;;;4.88;4.30;;;6.10;1.00;;;;;;4899420;28;20248;-79
2021/03/13 09:24:17;;;;;;;8.60;4.30;;;6.10;1.00;;;;;;4909531;28;20309;-77
2021/03/13 09:26:47;;;;;;;6.70;4.18;;;6.10;1.00;;;;;;4899559;28;20725;-78
2021/03/13 09:29:14;;;;;;;5.53;4.32;;;6.00;1.00;;;;;;4912499;28;20285;-78
2021/03/13 09:31:40;;;;;;;4.45;3.85;;;6.10;1.00;;;;;;4885243;28;23721;-76
2021/03/13 09:34:17;;;;;;;5.80;4.95;;;6.00;1.00;;;;;;4914836;28;20345;-77
2021/03/13 09:36:45;;;;;;;4.75;4.35;;;6.10;1.00;;;;;;4898525;28;20277;-76
2021/03/13 09:39:11;;;;;;;5.38;4.22;;;6.10;1.00;;;;;;4909397;28;20223;-77
2021/03/13 09:41:39;;;;;;;5.45;4.22;;;6.10;1.00;;;;;;4908390;28;20233;-77
2021/03/13 09:44:05;;;;;;;5.78;4.03;;;6.10;1.00;;;;;;4902553;28;20254;-75
2021/03/13 09:46:32;;;;;;;6.22;3.40;;;6.20;1.00;;;;;;4926186;28;20286;-77
2021/03/13 09:48:59;;;;;;;5.68;4.30;;;6.20;1.00;;;;;;4917936;28;20407;-76
2021/03/13 09:51:27;;;;;;;4.15;3.75;;;6.20;1.00;;;;;;4908892;28;20378;-77
2021/03/13 09:53:53;;;;;;;5.32;3.53;;;6.20;1.00;;;;;;4913455;28;20268;-78
2021/03/13 09:56:29;;;;;;;5.03;3.58;;;6.20;1.00;;;;;;4923204;28;20448;-77
2021/03/13 09:59:00;;;;;;;3.85;3.45;;;6.30;1.00;;;;;;4913525;28;20332;-77
2021/03/13 10:01:26;;;;;;;3.38;3.08;;;6.40;1.00;;;;;;4925095;28;20230;-77
2021/03/13 10:03:53;;;;;;;4.15;3.75;;;6.30;1.00;;;;;;4901154;28;20413;-78
2021/03/13 10:06:19;;;;;;;3.80;3.22;;;6.40;1.00;;;;;;4903117;28;20228;-76
2021/03/13 10:08:46;;;;;;;5.00;3.30;;;6.40;1.00;;;;;;4897834;28;21050;-75
2021/03/13 10:11:12;;;;;;;4.82;3.53;;;6.50;1.00;;;;;;4907708;28;20341;-76
2021/03/13 10:13:38;;;;;;;3.50;2.92;;;6.50;1.00;;;;;;4899838;28;20234;-77
2021/03/13 10:16:11;;;;;;;5.72;2.67;;;6.50;1.00;;;;;;4913309;28;20238;-78
2021/03/13 10:18:38;;;;;;;3.92;2.95;;;6.40;1.00;;;;;;4896549;28;20305;-76
2021/03/13 10:21:07;;;;;;;3.50;3.20;;;6.50;1.00;;;;;;4910251;28;20221;-75
2021/03/13 10:23:35;;;;;;;3.03;2.67;;;6.60;1.00;;;;;;4896535;28;20268;-76
2021/03/13 10:26:03;;;;;;;3.00;2.70;;;6.60;1.00;;;;;;4910036;28;20221;-75
2021/03/13 10:28:31;;;;;;;3.72;2.72;;;6.80;1.00;;;;;;4907042;28;20281;-75
2021/03/13 10:31:07;;;;;;;3.17;2.20;;;6.90;1.00;;;;;;4913004;28;21165;-78
2021/03/13 10:33:34;;;;;;;2.72;2.30;;;6.90;1.00;;;;;;4911623;28;20233;-77
2021/03/13 10:36:01;;;;;;;2.63;2.42;;;6.90;1.00;;;;;;4902597;28;20238;-75
2021/03/13 10:38:27;;;;;;;2.40;2.20;;;6.90;1.00;;;;;;4912335;28;20237;-74
2021/03/13 10:40:55;;;;;;;1.90;1.80;;;6.90;1.00;;;;;;4892009;28;20560;-77
2021/03/13 10:43:24;;;;;;;2.65;1.80;;;6.90;1.00;;;;;;4906077;28;20309;-76
2021/03/13 10:46:08;;;;;;;1.90;1.70;;;7.00;1.00;;;;;;4897062;28;20301;-75
2021/03/13 10:48:35;;;;;;;2.25;1.80;;;7.00;1.00;;;;;;4906928;28;20804;-74
2021/03/13 10:51:03;;;;;;;2.95;2.55;;;7.00;1.00;;;;;;4898985;28;20232;-76
2021/03/13 10:53:32;;;;;;;3.08;1.88;;;7.00;1.00;;;;;;4905238;28;20227;-76
2021/03/13 10:55:59;;;;;;;2.13;1.75;;;7.10;1.00;;;;;;4892379;28;20242;-75
2021/03/13 10:58:26;;;;;;;2.85;1.95;;;7.10;1.00;;;;;;4909313;28;21093;-76
2021/03/13 11:00:53;;;;;;;1.35;1.25;;;7.10;1.00;;;;;;4897146;28;20731;-73
2021/03/13 11:03:21;;;;;;;1.92;1.30;;;7.20;1.00;;;;;;4906656;28;20225;-75
2021/03/13 11:05:50;;;;;;;2.25;1.35;;;7.20;1.00;;;;;;4899146;28;20225;-75
2021/03/13 11:08:17;;;;;;;1.80;1.40;;;7.20;1.00;;;;;;4908946;28;20724;-74
2021/03/13 11:10:43;;;;;;;1.85;1.38;;;7.20;1.00;;;;;;4905235;28;20232;-76
2021/03/13 11:13:09;;;;;;;1.50;1.40;;;7.20;1.00;;;;;;4909976;28;20225;-76
2021/03/13 11:15:35;;;;;;;2.10;1.35;;;7.30;1.00;;;;;;4898237;28;20249;-76
2021/03/13 11:18:01;;;;;;;1.50;1.40;;;7.30;1.00;;;;;;4913657;28;20260;-73
2021/03/13 11:20:29;;;;;;;2.55;1.35;;;7.40;1.00;;;;;;4907331;28;20226;-75
2021/03/13 11:22:55;;;;;;;1.60;1.40;;;7.40;1.00;;;;;;4902315;28;20741;-74
2021/03/13 11:25:21;;;;;;;1.23;1.13;;;7.40;1.00;;;;;;4912634;28;20233;-74
2021/03/13 11:27:47;;;;;;;1.50;1.40;;;7.50;1.00;;;;;;4914442;28;20280;-76
2021/03/13 11:30:15;;;;;;;1.45;1.23;;;7.50;1.00;;;;;;4914833;28;20317;-73
2021/03/13 11:32:41;;;;;;;1.35;1.08;;;7.60;1.00;;;;;;4901100;28;20253;-73
2021/03/13 11:35:09;;;;;;;1.48;0.88;;;7.60;1.00;;;;;;4910268;28;21148;-76
2021/03/13 11:37:37;;;;;;;1.20;0.98;;;7.70;1.00;;;;;;4887948;28;20234;-75
2021/03/13 11:40:05;;;;;;;1.42;1.33;;;7.70;1.00;;;;;;4890755;28;20255;-73
2021/03/13 11:42:31;;;;;;;1.65;1.08;;;7.70;1.00;;;;;;4899971;28;20230;-75
2021/03/13 11:44:58;;;;;;;3.88;1.40;;;7.80;1.00;;;;;;4912084;28;20902;-74
2021/03/13 11:47:25;;;;;;;1.95;1.30;;;7.90;1.00;;;;;;4904373;28;20225;-76
2021/03/13 11:49:52;;;;;;;2.03;1.40;;;8.00;1.00;;;;;;4907334;28;20218;-74
2021/03/13 11:52:18;;;;;;;2.30;1.20;;;8.10;1.00;;;;;;4911984;28;20808;-76
2021/03/13 11:54:46;;;;;;;2.20;1.42;;;8.30;1.00;;;;;;4908272;28;20725;-72
2021/03/13 11:57:13;;;;;;;1.15;1.05;;;8.60;1.00;;;;;;4901299;28;20256;-73
2021/03/13 11:59:40;;;;;;;1.75;1.50;;;8.80;1.00;;;;;;4913810;28;20270;-77
2021/03/13 12:02:06;;;;;;;2.63;1.60;;;9.00;1.00;;;;;;4920320;28;20213;-76
2021/03/13 12:04:32;;;;;;;2.30;1.80;;;9.10;1.00;;;;;;4925354;28;20237;-72
2021/03/13 12:06:58;;;;;;;2.15;1.35;;;9.30;1.00;;;;;;4939791;28;20209;-73
2021/03/13 12:09:25;;;;;;;2.60;1.70;;;10.20;1.00;;;;;;4928624;28;20224;-74
2021/03/13 12:11:52;;;;;;;1.60;1.47;;;10.80;1.00;;;;;;4933770;28;20224;-75
2021/03/13 12:14:18;;;;;;;2.70;1.60;;;11.20;1.00;;;;;;4918274;28;20440;-74
2021/03/13 12:16:45;;;;;;;1.63;1.38;;;11.20;1.00;;;;;;4931437;28;20575;-74
2021/03/13 12:19:12;;;;;;;1.77;1.40;;;11.20;1.00;;;;;;4914932;28;20311;-75
2021/03/13 12:21:39;;;;;;;4.10;1.10;;;10.90;1.00;;;;;;4929668;28;20435;-74
2021/03/13 12:24:06;;;;;;;1.93;1.03;;;10.70;1.00;;;;;;4921298;28;20439;-74
2021/03/13 12:26:32;;;;;;;2.80;1.40;;;10.60;1.00;;;;;;4915629;28;20567;-75
2021/03/13 12:28:59;;;;;;;2.00;1.37;;;10.70;1.00;;;;;;4901825;28;20450;-75
2021/03/13 12:31:25;;;;;;;1.50;1.07;;;10.60;1.00;;;;;;4931152;28;21245;-75
2021/03/13 12:33:51;;;;;;;1.70;1.20;;;10.90;1.00;;;;;;4919612;28;20463;-74
2021/03/13 12:36:18;;;;;;;2.00;1.40;;;11.40;1.00;;;;;;4927131;28;20461;-75
2021/03/13 12:38:44;;;;;;;2.03;1.20;;;12.20;1.00;;;;;;4920256;28;20520;-76
2021/03/13 12:41:11;;;;;;;4.00;1.33;;;12.20;1.00;;;;;;4931964;28;20481;-74
2021/03/13 12:43:37;;;;;;;1.13;0.93;;;12.20;1.00;;;;;;4929207;28;21203;-74
2021/03/13 12:46:04;;;;;;;2.40;1.03;;;12.00;1.00;;;;;;4918770;28;20487;-76
2021/03/13 12:48:30;;;;;;;1.30;1.20;;;11.70;1.00;;;;;;4925696;28;20517;-75
2021/03/13 12:50:58;;;;;;;2.73;1.60;;;11.40;1.00;;;;;;4909077;28;20519;-76
2021/03/13 12:53:24;;;;;;;1.10;1.00;;;11.40;1.00;;;;;;4921957;28;20449;-77
2021/03/13 12:55:50;;;;;;;1.53;1.03;;;11.50;1.00;;;;;;4915941;28;20476;-77
2021/03/13 12:58:17;;;;;;;1.53;0.67;;;11.70;1.00;;;;;;4900194;28;20470;-77
2021/03/13 13:00:45;;;;;;;2.07;0.90;;;11.70;1.00;;;;;;4899220;28;20450;-76
2021/03/13 13:03:12;;;;;;;1.13;0.73;;;11.80;1.00;;;;;;4918391;28;20498;-77
2021/03/13 13:05:38;;;;;;;1.67;0.70;;;11.60;1.00;;;;;;4902190;28;21003;-79
2021/03/13 13:08:05;;;;;;;2.87;1.00;;;11.50;1.00;;;;;;4922368;28;20432;-75
2021/03/13 13:10:32;;;;;;;3.40;1.03;;;11.40;1.00;;;;;;4901849;28;20432;-76
2021/03/13 13:12:58;;;;;;;8.10;1.90;;;11.40;1.00;;;;;;4911802;28;20454;-77
2021/03/13 13:15:25;;;;;;;1.10;0.70;;;11.40;1.00;;;;;;4898279;28;20580;-77